Time;durP1;ratioP1;P1;durP2;ratioP2;P2;SDS_P1;SDS_P2;PMS_P1;PMS_P2;Temp;Humidity;BMP_temperature;BMP_pressure;BME280_temperature;BME280_humidity;BME280_pressure;Samples;Min_cycle;Max_cycle;Signal;HPM_P1;HPM_P2
2024/01/21 00:00:47;;;;;;;14.35;8.75;;;0.70;99.90;;;;;;5101716;28;20042;-32
2024/01/21 00:03:12;;;;;;;12.43;8.65;;;0.70;99.90;;;;;;5101099;28;20475;-37
2024/01/21 00:05:38;;;;;;;13.98;8.88;;;0.70;99.90;;;;;;5100662;28;20774;-38
2024/01/21 00:08:04;;;;;;;12.73;8.68;;;0.70;99.90;;;;;;5100822;28;20027;-39
2024/01/21 00:10:30;;;;;;;14.70;9.27;;;0.70;99.90;;;;;;5100192;28;20055;-33
2024/01/21 00:12:55;;;;;;;13.25;8.48;;;0.70;99.90;;;;;;5099910;28;20028;-38
2024/01/21 00:15:22;;;;;;;14.20;8.57;;;0.70;99.90;;;;;;5099506;28;20015;-37
2024/01/21 00:17:48;;;;;;;12.57;8.20;;;0.70;99.90;;;;;;5098301;28;20035;-34
2024/01/21 00:20:13;;;;;;;12.35;8.40;;;0.70;99.90;;;;;;5099624;28;20921;-33
2024/01/21 00:22:40;;;;;;;12.98;8.18;;;0.70;99.90;;;;;;5099408;28;20036;-34
2024/01/21 00:25:09;;;;;;;12.43;8.32;;;0.60;99.90;;;;;;5099433;28;20040;-35
2024/01/21 00:27:35;;;;;;;11.02;8.00;;;0.70;99.90;;;;;;5099888;28;20498;-33
2024/01/21 00:30:02;;;;;;;12.13;7.90;;;0.70;99.90;;;;;;5101223;28;20031;-34
2024/01/21 00:32:28;;;;;;;14.25;8.65;;;0.70;99.90;;;;;;5100277;28;20588;-34
2024/01/21 00:34:53;;;;;;;12.68;8.10;;;0.70;99.90;;;;;;5101300;28;20031;-36
2024/01/21 00:37:19;;;;;;;11.38;7.80;;;0.70;99.90;;;;;;5101300;28;20774;-34
2024/01/21 00:39:44;;;;;;;12.15;8.05;;;0.60;99.90;;;;;;5100340;28;20044;-35
2024/01/21 00:42:10;;;;;;;11.80;7.90;;;0.60;99.90;;;;;;5099851;28;20069;-34
2024/01/21 00:44:37;;;;;;;10.18;7.35;;;0.60;99.90;;;;;;5100676;28;20034;-32
2024/01/21 00:47:03;;;;;;;10.93;7.55;;;0.60;99.90;;;;;;5099186;28;20062;-37
2024/01/21 00:49:29;;;;;;;12.77;7.97;;;0.60;99.90;;;;;;5100894;28;20134;-34
2024/01/21 00:51:56;;;;;;;10.38;6.55;;;0.60;99.90;;;;;;5100737;28;20024;-33
2024/01/21 00:54:22;;;;;;;11.30;7.68;;;0.60;99.90;;;;;;5099695;28;20371;-38
2024/01/21 00:56:47;;;;;;;13.23;8.45;;;0.60;99.90;;;;;;5100087;28;20074;-33
2024/01/21 00:59:13;;;;;;;12.25;8.10;;;0.60;99.90;;;;;;5100385;28;20375;-36
2024/01/21 01:01:39;;;;;;;11.10;7.70;;;0.60;99.90;;;;;;5099397;28;20749;-32
2024/01/21 01:04:05;;;;;;;10.40;6.88;;;0.60;99.90;;;;;;5100025;28;20114;-34
2024/01/21 01:06:32;;;;;;;9.60;6.70;;;0.60;99.90;;;;;;5099634;28;20093;-33
2024/01/21 01:08:58;;;;;;;8.77;6.45;;;0.60;99.90;;;;;;5100036;28;20023;-34
2024/01/21 01:11:24;;;;;;;8.50;5.95;;;0.50;99.90;;;;;;5100075;28;20042;-42
2024/01/21 01:13:50;;;;;;;8.50;6.20;;;0.50;99.90;;;;;;5099166;28;20055;-36
2024/01/21 01:16:16;;;;;;;9.30;6.25;;;0.50;99.90;;;;;;5099803;28;20138;-34
2024/01/21 01:18:42;;;;;;;9.18;6.22;;;0.50;99.90;;;;;;5100451;28;20027;-33
2024/01/21 01:21:10;;;;;;;9.38;6.50;;;0.40;99.90;;;;;;5099061;28;20469;-34
2024/01/21 01:23:36;;;;;;;10.73;7.30;;;0.40;99.90;;;;;;5099515;28;20034;-35
2024/01/21 01:26:01;;;;;;;10.60;6.85;;;0.40;99.90;;;;;;5100059;28;20027;-37
2024/01/21 01:28:27;;;;;;;9.40;6.90;;;0.40;99.90;;;;;;5099118;28;20062;-37
2024/01/21 01:30:52;;;;;;;10.38;7.18;;;0.40;99.90;;;;;;5100045;28;20061;-33
2024/01/21 01:33:18;;;;;;;11.00;7.63;;;0.30;99.90;;;;;;5099717;28;20757;-35
2024/01/21 01:35:44;;;;;;;14.23;8.25;;;0.30;99.90;;;;;;5099534;28;20058;-35
2024/01/21 01:38:12;;;;;;;12.32;8.02;;;0.30;99.90;;;;;;5099955;28;20027;-33
2024/01/21 01:40:40;;;;;;;12.40;7.70;;;0.30;99.90;;;;;;5100111;28;20043;-32
2024/01/21 01:43:06;;;;;;;11.30;7.20;;;0.20;99.90;;;;;;5099026;28;20023;-31
2024/01/21 01:45:31;;;;;;;10.38;7.25;;;0.20;99.90;;;;;;5099294;28;20028;-36
2024/01/21 01:47:58;;;;;;;14.40;8.05;;;0.20;99.90;;;;;;5099238;28;20123;-32
2024/01/21 01:50:25;;;;;;;11.80;8.68;;;0.20;99.90;;;;;;5098320;28;20094;-33
2024/01/21 01:52:51;;;;;;;11.45;7.70;;;0.20;99.90;;;;;;5099409;28;20015;-34
2024/01/21 01:55:18;;;;;;;11.45;7.95;;;0.20;99.90;;;;;;5098926;28;20030;-34
2024/01/21 01:57:50;;;;;;;11.13;7.85;;;0.20;99.90;;;;;;5099009;28;20077;-34
2024/01/21 02:00:15;;;;;;;12.88;8.20;;;0.10;99.90;;;;;;5103294;28;20078;-33
2024/01/21 02:02:41;;;;;;;16.17;8.80;;;0.20;99.90;;;;;;5103975;28;20098;-31
2024/01/21 02:05:07;;;;;;;13.30;8.43;;;0.10;99.90;;;;;;5102597;28;20106;-32
2024/01/21 02:07:33;;;;;;;11.30;7.60;;;0.10;99.90;;;;;;5103694;28;20055;-30
2024/01/21 02:10:01;;;;;;;11.63;8.35;;;0.10;99.90;;;;;;5102464;28;20842;-33
2024/01/21 02:12:27;;;;;;;13.40;7.80;;;0.10;99.90;;;;;;5103649;28;20063;-34
2024/01/21 02:14:53;;;;;;;10.93;7.55;;;0.10;99.90;;;;;;5103121;28;20028;-35
2024/01/21 02:17:19;;;;;;;12.68;6.97;;;0.10;99.90;;;;;;5102433;28;20042;-34
2024/01/21 02:19:44;;;;;;;12.07;7.57;;;0.10;99.90;;;;;;5102604;28;20034;-30
2024/01/21 02:22:10;;;;;;;11.48;6.80;;;0.00;99.90;;;;;;5102612;28;20030;-31
2024/01/21 02:24:35;;;;;;;10.13;6.72;;;0.10;99.90;;;;;;5102201;28;20023;-32
2024/01/21 02:27:01;;;;;;;9.75;6.25;;;0.00;99.90;;;;;;5103138;28;20023;-35
2024/01/21 02:29:27;;;;;;;9.02;6.47;;;0.00;99.90;;;;;;5102859;28;20019;-32
2024/01/21 02:31:53;;;;;;;10.18;6.95;;;0.00;99.90;;;;;;5102444;28;20023;-33
2024/01/21 02:34:20;;;;;;;11.35;6.97;;;0.00;99.90;;;;;;5102857;28;20081;-32
2024/01/21 02:36:46;;;;;;;10.60;7.50;;;0.00;99.90;;;;;;5102444;28;20148;-33
2024/01/21 02:39:12;;;;;;;10.57;7.13;;;0.00;99.90;;;;;;5101872;28;20524;-35
2024/01/21 02:41:37;;;;;;;11.63;7.75;;;0.00;99.90;;;;;;5101818;28;20024;-33
2024/01/21 02:44:03;;;;;;;11.15;7.10;;;0.00;99.90;;;;;;5103143;28;20031;-35
2024/01/21 02:46:29;;;;;;;12.32;8.00;;;0.00;99.90;;;;;;5102180;28;20031;-35
2024/01/21 02:48:54;;;;;;;10.13;6.88;;;0.00;99.90;;;;;;5103037;28;20031;-31
2024/01/21 02:51:20;;;;;;;10.15;6.78;;;0.00;99.90;;;;;;5102712;28;20020;-33
2024/01/21 02:53:45;;;;;;;8.90;6.38;;;0.00;99.90;;;;;;5101368;28;20035;-33
2024/01/21 02:56:25;;;;;;;10.00;6.65;;;0.10;99.90;;;;;;5102040;28;20038;-36
2024/01/21 02:58:51;;;;;;;11.27;7.70;;;0.10;99.90;;;;;;5102350;28;20386;-32
2024/01/21 03:01:19;;;;;;;10.43;6.90;;;0.10;99.90;;;;;;5102005;28;20463;-35
2024/01/21 03:03:44;;;;;;;9.82;6.72;;;0.10;99.90;;;;;;5103010;28;20028;-34
2024/01/21 03:06:10;;;;;;;12.60;7.65;;;0.20;99.90;;;;;;5101714;28;20081;-36
2024/01/21 03:08:36;;;;;;;9.23;6.80;;;0.20;99.90;;;;;;5102930;28;20043;-33
2024/01/21 03:11:02;;;;;;;12.02;7.10;;;0.20;99.90;;;;;;5101380;28;20051;-35
2024/01/21 03:13:29;;;;;;;10.30;6.97;;;0.20;99.90;;;;;;5101621;28;20873;-37
2024/01/21 03:15:55;;;;;;;12.15;7.25;;;0.20;99.90;;;;;;5102258;28;20107;-37
2024/01/21 03:18:20;;;;;;;10.32;6.88;;;0.30;99.90;;;;;;5098236;28;20023;-37
2024/01/21 03:20:46;;;;;;;9.05;6.38;;;0.30;99.90;;;;;;5101962;28;20085;-33
2024/01/21 03:23:12;;;;;;;10.60;7.28;;;0.30;99.90;;;;;;5101049;28;20028;-34
2024/01/21 03:25:37;;;;;;;9.90;6.65;;;0.30;99.90;;;;;;5101819;28;20752;-34
2024/01/21 03:28:03;;;;;;;8.35;6.43;;;0.40;99.90;;;;;;5100828;28;20035;-32
2024/01/21 03:30:29;;;;;;;9.82;6.25;;;0.40;99.90;;;;;;5080968;28;20031;-35
2024/01/21 03:32:55;;;;;;;7.63;5.50;;;0.40;99.90;;;;;;5094848;28;20546;-33
2024/01/21 03:35:20;;;;;;;7.55;4.88;;;0.40;99.90;;;;;;5100418;28;20116;-33
2024/01/21 03:37:46;;;;;;;7.35;5.50;;;0.40;99.90;;;;;;5101504;28;20083;-34
2024/01/21 03:40:12;;;;;;;8.05;5.32;;;0.40;99.90;;;;;;5101376;28;20071;-32
2024/01/21 03:42:38;;;;;;;7.32;5.28;;;0.40;99.90;;;;;;5100974;28;20027;-31
2024/01/21 03:45:05;;;;;;;7.90;5.55;;;0.40;99.90;;;;;;5101585;28;20034;-32
2024/01/21 03:47:31;;;;;;;7.15;5.05;;;0.40;99.90;;;;;;5101100;28;20043;-32
2024/01/21 03:49:57;;;;;;;6.07;4.40;;;0.40;99.90;;;;;;5100772;28;20123;-35
2024/01/21 03:52:22;;;;;;;5.93;4.65;;;0.40;99.90;;;;;;5101892;28;20019;-33
2024/01/21 03:54:48;;;;;;;5.63;4.20;;;0.40;99.90;;;;;;5101465;28;20405;-32
2024/01/21 03:57:13;;;;;;;5.28;3.95;;;0.40;99.90;;;;;;5100906;28;20489;-35
2024/01/21 03:59:40;;;;;;;7.03;4.82;;;0.40;99.90;;;;;;5100811;28;20518;-34
2024/01/21 04:02:06;;;;;;;6.78;4.50;;;0.40;99.90;;;;;;5100854;28;20050;-34
2024/01/21 04:04:31;;;;;;;6.70;4.53;;;0.40;99.90;;;;;;5100239;28;20592;-34
2024/01/21 04:06:57;;;;;;;5.97;4.47;;;0.40;99.90;;;;;;5101146;28;20530;-37
2024/01/21 04:09:23;;;;;;;5.70;3.50;;;0.40;99.90;;;;;;5100326;28;20100;-33
2024/01/21 04:11:52;;;;;;;5.78;3.75;;;0.40;99.90;;;;;;5101943;28;20490;-36
2024/01/21 04:14:18;;;;;;;4.57;3.55;;;0.40;99.90;;;;;;5101420;28;20023;-35
2024/01/21 04:16:44;;;;;;;5.15;4.10;;;0.40;99.90;;;;;;5100877;28;20741;-33
2024/01/21 04:19:09;;;;;;;4.13;3.45;;;0.40;99.90;;;;;;5100954;28;20143;-34
2024/01/21 04:21:36;;;;;;;4.60;3.50;;;0.40;99.90;;;;;;5100586;28;20019;-33
2024/01/21 04:24:02;;;;;;;5.55;3.92;;;0.30;99.90;;;;;;5099806;28;20077;-33
2024/01/21 04:26:28;;;;;;;4.32;3.55;;;0.40;99.90;;;;;;5100256;28;20063;-31
2024/01/21 04:28:53;;;;;;;4.65;3.72;;;0.40;99.90;;;;;;5099256;28;20628;-34
2024/01/21 04:31:19;;;;;;;5.13;3.88;;;0.40;99.90;;;;;;5098619;28;20027;-32
2024/01/21 04:33:44;;;;;;;4.45;3.40;;;0.40;99.90;;;;;;5099967;28;20020;-35
2024/01/21 04:36:17;;;;;;;4.80;3.55;;;0.40;99.90;;;;;;5099676;28;20028;-34
2024/01/21 04:38:43;;;;;;;4.85;3.58;;;0.40;99.90;;;;;;5099211;28;20028;-34
2024/01/21 04:41:08;;;;;;;4.50;3.75;;;0.40;99.90;;;;;;5099645;28;20023;-36
2024/01/21 04:43:34;;;;;;;4.05;3.10;;;0.40;99.90;;;;;;5100238;28;20027;-35
2024/01/21 04:46:00;;;;;;;4.97;3.42;;;0.40;99.90;;;;;;5099674;28;20032;-36
2024/01/21 04:48:25;;;;;;;4.13;3.42;;;0.50;99.90;;;;;;5100478;28;20023;-30
2024/01/21 04:50:51;;;;;;;5.35;3.53;;;0.50;99.90;;;;;;5100257;28;20114;-32
2024/01/21 04:53:17;;;;;;;4.53;3.53;;;0.60;99.90;;;;;;5100638;28;20038;-31
2024/01/21 04:55:43;;;;;;;5.18;3.72;;;0.70;99.90;;;;;;5101157;28;20252;-33
2024/01/21 04:58:08;;;;;;;6.82;3.83;;;0.80;99.90;;;;;;5100266;28;20026;-35
2024/01/21 05:00:37;;;;;;;5.05;3.25;;;0.90;99.90;;;;;;5098909;28;20955;-33
2024/01/21 05:03:02;;;;;;;4.78;3.30;;;0.90;99.90;;;;;;5100646;28;20055;-31
2024/01/21 05:05:28;;;;;;;4.28;3.30;;;1.00;99.90;;;;;;5099569;28;20107;-30
2024/01/21 05:07:54;;;;;;;4.38;3.15;;;1.10;99.90;;;;;;5099777;28;20059;-34
2024/01/21 05:10:19;;;;;;;4.80;3.40;;;1.20;99.90;;;;;;5099835;28;20582;-35
2024/01/21 05:12:45;;;;;;;5.10;3.90;;;1.20;99.90;;;;;;5099253;28;20027;-35
2024/01/21 05:15:10;;;;;;;4.50;3.42;;;1.30;99.90;;;;;;5100245;28;20015;-34
2024/01/21 05:17:36;;;;;;;4.40;3.05;;;1.30;99.90;;;;;;5100440;28;20474;-35
2024/01/21 05:20:03;;;;;;;4.30;3.35;;;1.40;99.90;;;;;;5099621;28;20035;-32
2024/01/21 05:22:29;;;;;;;5.88;3.50;;;1.40;99.90;;;;;;5100130;28;20015;-37
2024/01/21 05:24:55;;;;;;;3.78;2.88;;;1.50;99.90;;;;;;5100692;28;20032;-33
2024/01/21 05:27:21;;;;;;;3.95;2.70;;;1.50;99.90;;;;;;5099487;28;20030;-32
2024/01/21 05:29:47;;;;;;;4.18;3.13;;;1.50;99.90;;;;;;5100767;28;20032;-32
2024/01/21 05:32:13;;;;;;;4.00;3.35;;;1.60;99.90;;;;;;5100454;28;20035;-32
2024/01/21 05:34:38;;;;;;;4.53;3.50;;;1.60;99.90;;;;;;5078883;28;20536;-35
2024/01/21 05:37:04;;;;;;;5.65;4.00;;;1.50;99.90;;;;;;5094364;28;20023;-34
2024/01/21 05:39:31;;;;;;;6.47;3.92;;;1.60;99.90;;;;;;5099856;28;20087;-35
2024/01/21 05:42:03;;;;;;;5.88;4.10;;;1.50;99.90;;;;;;5099252;28;20045;-31
2024/01/21 05:44:29;;;;;;;6.00;4.38;;;1.60;99.90;;;;;;5099259;28;20108;-32
2024/01/21 05:46:54;;;;;;;5.35;3.60;;;1.50;99.90;;;;;;5099331;28;20024;-31
2024/01/21 05:49:20;;;;;;;4.45;3.33;;;1.50;99.90;;;;;;5098986;28;20661;-31
2024/01/21 05:51:46;;;;;;;4.82;3.70;;;1.50;99.90;;;;;;5100731;28;20024;-31
2024/01/21 05:54:12;;;;;;;6.60;3.95;;;1.50;99.90;;;;;;5100128;28;20516;-35
2024/01/21 05:56:38;;;;;;;5.85;3.92;;;1.50;99.90;;;;;;5098901;28;20030;-36
2024/01/21 05:59:05;;;;;;;5.78;3.95;;;1.50;99.90;;;;;;5099802;28;20151;-31
2024/01/21 06:01:31;;;;;;;6.97;4.05;;;1.50;99.90;;;;;;5099373;28;20248;-32
2024/01/21 06:03:56;;;;;;;6.13;4.25;;;1.50;99.90;;;;;;5098660;28;20470;-37
2024/01/21 06:06:22;;;;;;;5.47;3.83;;;1.50;99.90;;;;;;5099924;28;20023;-33
2024/01/21 06:08:48;;;;;;;5.75;3.97;;;1.50;99.90;;;;;;5099270;28;20028;-32
2024/01/21 06:11:13;;;;;;;5.43;3.75;;;1.50;99.90;;;;;;5098577;28;20843;-34
2024/01/21 06:13:48;;;;;;;5.20;3.85;;;1.40;99.90;;;;;;5098699;28;20036;-40
2024/01/21 06:16:17;;;;;;;6.75;4.20;;;1.40;99.90;;;;;;5099074;28;20808;-32
2024/01/21 06:18:43;;;;;;;5.88;4.40;;;1.40;99.90;;;;;;5099620;28;20024;-37
2024/01/21 06:21:09;;;;;;;7.13;4.20;;;1.40;99.90;;;;;;5099661;28;20042;-36
2024/01/21 06:23:34;;;;;;;5.28;3.50;;;1.40;99.90;;;;;;5099023;28;20024;-31
2024/01/21 06:26:00;;;;;;;5.30;4.07;;;1.40;99.90;;;;;;5099264;28;20031;-37
2024/01/21 06:28:26;;;;;;;5.13;4.07;;;1.40;99.90;;;;;;5099338;28;20027;-34
2024/01/21 06:30:51;;;;;;;5.95;4.22;;;1.50;99.90;;;;;;5099013;28;20046;-35
2024/01/21 06:33:19;;;;;;;4.95;4.07;;;1.40;99.90;;;;;;5099459;28;20019;-37
2024/01/21 06:35:45;;;;;;;5.03;3.83;;;1.50;99.90;;;;;;5100243;28;20035;-33
2024/01/21 06:38:10;;;;;;;6.05;3.92;;;1.50;99.90;;;;;;5099270;28;20020;-37
2024/01/21 06:40:36;;;;;;;5.65;4.50;;;1.50;99.90;;;;;;5099458;28;20093;-37
2024/01/21 06:43:02;;;;;;;5.05;3.63;;;1.60;99.90;;;;;;5099519;28;20363;-34
2024/01/21 06:45:28;;;;;;;7.55;4.80;;;1.60;99.90;;;;;;5099531;28;20034;-35
2024/01/21 06:47:53;;;;;;;6.80;4.75;;;1.60;99.90;;;;;;5102450;28;20032;-34
2024/01/21 06:50:19;;;;;;;6.25;4.50;;;1.60;99.90;;;;;;5102594;28;20036;-35
2024/01/21 06:52:44;;;;;;;6.10;4.53;;;1.60;99.90;;;;;;5102346;28;20030;-36
2024/01/21 06:55:10;;;;;;;5.25;4.05;;;1.70;99.90;;;;;;5101807;28;20031;-33
2024/01/21 06:57:35;;;;;;;6.55;4.30;;;1.70;99.90;;;;;;5102431;28;20024;-35
2024/01/21 07:00:05;;;;;;;6.78;4.43;;;1.80;99.90;;;;;;5101510;28;20039;-32
2024/01/21 07:02:32;;;;;;;5.25;3.80;;;1.80;99.90;;;;;;5102003;28;20107;-36
2024/01/21 07:04:57;;;;;;;5.05;3.78;;;1.80;99.90;;;;;;5102756;28;20027;-31
2024/01/21 07:07:23;;;;;;;7.47;4.38;;;1.80;99.90;;;;;;5101813;28;20089;-35
2024/01/21 07:09:49;;;;;;;6.13;4.13;;;1.90;99.90;;;;;;5102435;28;20068;-30
2024/01/21 07:12:14;;;;;;;6.82;4.55;;;1.90;99.90;;;;;;5101316;28;20058;-34
2024/01/21 07:14:40;;;;;;;7.38;5.07;;;1.90;99.90;;;;;;5101755;28;20127;-33
2024/01/21 07:17:06;;;;;;;6.78;4.55;;;1.90;99.90;;;;;;5102425;28;20131;-33
2024/01/21 07:19:31;;;;;;;6.93;4.70;;;2.00;99.90;;;;;;5100885;28;20031;-35
2024/01/21 07:21:58;;;;;;;6.35;5.07;;;2.00;99.90;;;;;;5101957;28;20109;-36
2024/01/21 07:24:24;;;;;;;5.88;4.88;;;2.00;99.90;;;;;;5102321;28;20157;-34
2024/01/21 07:26:50;;;;;;;7.05;4.85;;;2.00;99.90;;;;;;5101181;28;20732;-35
2024/01/21 07:29:15;;;;;;;7.22;5.00;;;2.00;99.90;;;;;;5101698;28;20515;-33
2024/01/21 07:31:41;;;;;;;6.18;4.40;;;2.00;99.90;;;;;;5102318;28;20020;-34
2024/01/21 07:34:10;;;;;;;8.05;5.75;;;2.10;99.90;;;;;;5101046;28;20035;-31
2024/01/21 07:36:36;;;;;;;7.72;4.35;;;2.10;99.90;;;;;;5101373;28;20030;-35
2024/01/21 07:39:04;;;;;;;7.78;5.35;;;2.10;99.90;;;;;;5101470;28;20062;-31
2024/01/21 07:41:33;;;;;;;8.52;5.63;;;2.20;99.90;;;;;;5101038;28;20140;-34
2024/01/21 07:43:59;;;;;;;6.43;4.63;;;2.20;99.90;;;;;;5081438;28;20019;-37
2024/01/21 07:46:25;;;;;;;7.32;5.20;;;2.30;99.90;;;;;;5095589;28;20055;-34
2024/01/21 07:48:50;;;;;;;8.13;5.80;;;2.30;99.90;;;;;;5101283;28;20263;-36
2024/01/21 07:51:18;;;;;;;8.25;5.55;;;2.30;99.90;;;;;;5100896;28;20467;-33
2024/01/21 07:53:44;;;;;;;7.10;4.57;;;2.40;99.90;;;;;;5101158;28;20438;-33
2024/01/21 07:56:10;;;;;;;7.00;4.88;;;2.40;99.90;;;;;;5100261;28;20060;-36
2024/01/21 07:58:36;;;;;;;8.57;4.88;;;2.40;99.90;;;;;;5101308;28;20020;-35
2024/01/21 08:01:10;;;;;;;7.50;4.65;;;2.30;99.90;;;;;;5102094;28;20027;-33
2024/01/21 08:03:36;;;;;;;6.68;4.93;;;2.40;99.90;;;;;;5100928;28;20065;-28
2024/01/21 08:06:02;;;;;;;6.55;5.18;;;2.40;99.90;;;;;;5101289;28;20402;-35
2024/01/21 08:08:27;;;;;;;6.40;5.00;;;2.40;99.90;;;;;;5090159;28;20028;-35
2024/01/21 08:10:53;;;;;;;7.70;5.20;;;2.50;99.90;;;;;;5101072;28;20098;-31
2024/01/21 08:13:18;;;;;;;7.13;4.93;;;2.50;99.90;;;;;;5100964;28;20089;-35
2024/01/21 08:15:44;;;;;;;8.05;5.38;;;2.60;99.90;;;;;;5100009;28;20055;-34
2024/01/21 08:18:12;;;;;;;6.90;5.00;;;2.60;99.90;;;;;;5100844;28;20043;-33
2024/01/21 08:20:37;;;;;;;7.65;5.55;;;2.70;99.90;;;;;;5097923;28;20039;-35
2024/01/21 08:23:03;;;;;;;6.65;5.15;;;2.70;99.90;;;;;;5099303;28;20030;-34
2024/01/21 08:25:29;;;;;;;8.30;5.82;;;2.70;99.90;;;;;;5100200;28;20351;-32
2024/01/21 08:27:54;;;;;;;7.15;5.30;;;2.80;99.90;;;;;;5099800;28;20031;-34
2024/01/21 08:30:20;;;;;;;7.47;4.88;;;2.80;99.90;;;;;;5099131;28;20561;-32
2024/01/21 08:32:45;;;;;;;8.05;4.97;;;2.90;99.90;;;;;;5100080;28;20915;-32
2024/01/21 08:35:11;;;;;;;7.93;5.65;;;2.90;99.90;;;;;;5100012;28;20069;-34
2024/01/21 08:37:37;;;;;;;8.90;5.90;;;2.90;99.90;;;;;;5099042;28;20015;-35
2024/01/21 08:40:04;;;;;;;6.70;4.85;;;3.00;99.90;;;;;;5099383;28;20843;-36
2024/01/21 08:42:30;;;;;;;6.03;4.72;;;2.90;99.90;;;;;;5099267;28;20028;-35
2024/01/21 08:44:56;;;;;;;6.43;4.93;;;3.00;99.90;;;;;;5098573;28;20139;-38
2024/01/21 08:47:22;;;;;;;6.00;4.63;;;3.00;99.90;;;;;;5099773;28;20107;-32
2024/01/21 08:49:48;;;;;;;7.80;5.10;;;3.00;99.90;;;;;;5100007;28;20027;-37
2024/01/21 08:52:13;;;;;;;7.90;5.60;;;3.10;99.90;;;;;;5099351;28;20066;-35
2024/01/21 08:54:42;;;;;;;8.00;5.80;;;3.10;99.90;;;;;;5100855;28;20114;-36
2024/01/21 08:57:07;;;;;;;9.50;5.70;;;3.10;99.90;;;;;;5100030;28;20030;-33
2024/01/21 08:59:33;;;;;;;5.72;4.18;;;3.10;99.90;;;;;;5099103;28;20043;-36
2024/01/21 09:01:58;;;;;;;7.47;4.97;;;3.20;99.90;;;;;;5100376;28;20465;-35
2024/01/21 09:04:24;;;;;;;7.47;4.90;;;3.20;99.90;;;;;;5100649;28;20027;-33
2024/01/21 09:06:50;;;;;;;7.25;5.32;;;3.20;99.90;;;;;;5100487;28;20031;-29
2024/01/21 09:09:15;;;;;;;6.45;4.78;;;3.30;99.90;;;;;;5099400;28;20107;-30
2024/01/21 09:11:41;;;;;;;8.20;5.55;;;3.30;99.90;;;;;;5099601;28;20059;-37
2024/01/21 09:14:07;;;;;;;6.28;4.97;;;3.30;99.90;;;;;;5098829;28;20028;-34
2024/01/21 09:16:33;;;;;;;7.22;5.50;;;3.40;99.90;;;;;;5098963;28;20036;-34
2024/01/21 09:18:59;;;;;;;7.35;5.47;;;3.40;99.90;;;;;;5099007;28;20035;-35
2024/01/21 09:21:24;;;;;;;6.10;4.63;;;3.50;99.90;;;;;;5099851;28;20054;-35
2024/01/21 09:23:54;;;;;;;6.57;4.95;;;3.50;99.90;;;;;;5099624;28;20030;-31
2024/01/21 09:26:19;;;;;;;6.97;5.15;;;3.50;99.90;;;;;;5099417;28;20093;-34
2024/01/21 09:28:45;;;;;;;6.97;5.05;;;3.60;99.90;;;;;;5099302;28;20019;-31
2024/01/21 09:31:10;;;;;;;7.65;4.82;;;3.60;99.90;;;;;;5099444;28;20015;-32
2024/01/21 09:33:36;;;;;;;7.70;5.03;;;3.60;99.90;;;;;;5098131;28;20023;-33
2024/01/21 09:36:02;;;;;;;6.15;4.90;;;3.60;99.90;;;;;;5099626;28;20124;-33
2024/01/21 09:38:28;;;;;;;9.15;6.10;;;3.60;99.90;;;;;;5099038;28;20026;-36
2024/01/21 09:41:06;;;;;;;7.00;5.05;;;3.70;99.90;;;;;;5097622;28;20054;-34
2024/01/21 09:43:33;;;;;;;7.13;5.00;;;3.70;99.90;;;;;;5099177;28;20030;-33
2024/01/21 09:46:00;;;;;;;5.15;3.90;;;3.70;99.90;;;;;;5099744;28;20098;-31
2024/01/21 09:48:27;;;;;;;6.43;4.70;;;3.80;99.90;;;;;;5093181;28;20756;-35
2024/01/21 09:50:56;;;;;;;7.38;4.70;;;3.80;99.90;;;;;;5099660;28;20829;-36
2024/01/21 09:53:22;;;;;;;7.50;5.32;;;3.80;99.90;;;;;;5099639;28;20024;-37
2024/01/21 09:55:53;;;;;;;4.95;3.80;;;3.80;99.90;;;;;;5098958;28;20384;-35
2024/01/21 09:58:20;;;;;;;7.22;5.65;;;3.80;99.90;;;;;;5099250;28;20145;-37
2024/01/21 10:00:47;;;;;;;6.93;5.32;;;3.80;99.90;;;;;;5099590;28;20071;-37
2024/01/21 10:03:13;;;;;;;6.55;4.80;;;3.80;99.90;;;;;;5099483;28;20115;-36
2024/01/21 10:05:39;;;;;;;7.13;4.85;;;3.80;99.90;;;;;;5099109;28;20114;-36
2024/01/21 10:08:05;;;;;;;6.70;5.07;;;3.80;99.90;;;;;;5098999;28;20566;-36
2024/01/21 10:10:31;;;;;;;7.72;4.68;;;3.90;99.90;;;;;;5098292;28;20048;-36
2024/01/21 10:12:57;;;;;;;6.78;5.28;;;3.90;99.90;;;;;;5098005;28;20035;-37
2024/01/21 10:15:22;;;;;;;7.40;5.28;;;3.90;99.90;;;;;;5096904;28;20024;-34
2024/01/21 10:17:51;;;;;;;6.40;4.63;;;3.90;99.90;;;;;;5097792;28;20035;-35
2024/01/21 10:20:18;;;;;;;6.47;4.75;;;4.00;99.90;;;;;;5100484;28;20881;-36
2024/01/21 10:22:44;;;;;;;6.63;4.80;;;4.00;99.90;;;;;;5103112;28;20020;-35
2024/01/21 10:25:13;;;;;;;7.00;5.25;;;4.00;99.90;;;;;;5103379;28;20073;-36
2024/01/21 10:27:40;;;;;;;6.00;4.60;;;4.10;99.90;;;;;;5103071;28;20507;-32
2024/01/21 10:30:08;;;;;;;4.95;4.45;;;4.10;99.90;;;;;;5103142;28;20509;-35
2024/01/21 10:32:35;;;;;;;6.40;4.10;;;4.10;99.90;;;;;;5103553;28;20040;-36
2024/01/21 10:35:04;;;;;;;5.78;4.10;;;4.10;99.90;;;;;;5103901;28;20028;-34
2024/01/21 10:37:34;;;;;;;5.85;5.15;;;4.10;99.90;;;;;;5102557;28;20027;-34
2024/01/21 10:40:01;;;;;;;6.35;4.85;;;4.10;99.90;;;;;;5103749;28;20036;-36
2024/01/21 10:42:27;;;;;;;6.55;4.20;;;4.10;99.90;;;;;;5102471;28;20024;-35
2024/01/21 10:44:57;;;;;;;5.40;4.13;;;4.20;99.90;;;;;;5102701;28;20034;-33
2024/01/21 10:47:24;;;;;;;5.85;4.80;;;4.20;99.90;;;;;;5101696;28;20031;-35
2024/01/21 10:49:50;;;;;;;5.32;4.47;;;4.20;99.90;;;;;;5103039;28;20032;-35
2024/01/21 10:52:16;;;;;;;5.20;4.47;;;4.20;99.90;;;;;;5102359;28;20042;-36
2024/01/21 10:54:44;;;;;;;7.97;5.32;;;4.20;99.90;;;;;;5102867;28;20077;-35
2024/01/21 10:57:09;;;;;;;7.22;4.95;;;4.20;99.90;;;;;;5102570;28;20046;-36
2024/01/21 10:59:38;;;;;;;6.88;4.97;;;4.20;99.90;;;;;;5102660;28;20463;-34
2024/01/21 11:02:05;;;;;;;6.68;4.47;;;4.30;99.90;;;;;;5102604;28;20129;-34
2024/01/21 11:04:30;;;;;;;6.22;4.60;;;4.30;99.90;;;;;;5102228;28;20031;-34
2024/01/21 11:06:56;;;;;;;8.55;5.63;;;4.30;99.90;;;;;;5103091;28;20760;-38
2024/01/21 11:09:23;;;;;;;7.70;5.05;;;4.30;99.90;;;;;;5102276;28;20027;-35
2024/01/21 11:11:50;;;;;;;7.35;5.45;;;4.30;99.90;;;;;;5101602;28;20150;-32
2024/01/21 11:14:36;;;;;;;5.88;4.30;;;4.40;99.90;;;;;;5098778;28;20019;-33
2024/01/21 11:17:06;;;;;;;6.70;4.78;;;4.40;99.90;;;;;;5102491;28;20019;-36
2024/01/21 11:19:47;;;;;;;8.23;5.20;;;4.40;99.90;;;;;;5101478;28;20110;-36
2024/01/21 11:22:16;;;;;;;8.18;6.15;;;4.40;99.90;;;;;;5102511;28;20119;-35
2024/01/21 11:24:43;;;;;;;6.00;4.70;;;4.50;99.90;;;;;;5103053;28;20065;-36
2024/01/21 11:27:20;;;;;;;5.90;4.47;;;4.50;99.90;;;;;;5102235;28;20383;-36
2024/01/21 11:29:49;;;;;;;6.72;4.57;;;4.50;99.90;;;;;;5098945;28;20131;-35
2024/01/21 11:32:19;;;;;;;5.22;4.00;;;4.50;99.90;;;;;;5101417;28;20505;-34
2024/01/21 11:34:45;;;;;;;6.55;5.30;;;4.50;99.90;;;;;;5101634;28;20076;-35
2024/01/21 11:37:14;;;;;;;6.50;4.93;;;4.60;99.90;;;;;;5101980;28;20549;-34
2024/01/21 11:39:40;;;;;;;8.55;5.57;;;4.60;99.90;;;;;;5100769;28;20027;-38
2024/01/21 11:42:07;;;;;;;6.88;5.05;;;4.60;99.90;;;;;;5101521;28;20030;-34
2024/01/21 11:44:36;;;;;;;6.25;4.72;;;4.60;99.90;;;;;;5101781;28;20026;-38
2024/01/21 11:47:04;;;;;;;6.68;4.68;;;4.60;99.90;;;;;;5101784;28;20024;-38
2024/01/21 11:49:31;;;;;;;6.30;4.90;;;4.60;99.90;;;;;;5102515;28;20028;-32
2024/01/21 11:52:05;;;;;;;5.28;4.03;;;4.70;99.90;;;;;;5101773;28;20028;-35
2024/01/21 11:54:32;;;;;;;6.10;4.60;;;4.70;99.90;;;;;;5100322;28;20066;-32
2024/01/21 11:56:58;;;;;;;7.43;5.85;;;4.70;99.90;;;;;;5101862;28;20023;-36
2024/01/21 11:59:24;;;;;;;5.82;4.70;;;4.70;99.90;;;;;;5100023;28;20036;-36
2024/01/21 12:01:53;;;;;;;5.85;4.95;;;4.80;99.90;;;;;;5099482;28;20031;-34
2024/01/21 12:04:19;;;;;;;5.97;4.82;;;4.80;99.90;;;;;;5099571;28;20040;-39
2024/01/21 12:06:48;;;;;;;7.82;5.10;;;4.80;99.90;;;;;;5100874;28;20034;-36
2024/01/21 12:09:14;;;;;;;6.03;4.72;;;4.80;99.90;;;;;;5099923;28;20474;-33
2024/01/21 12:11:41;;;;;;;6.15;4.72;;;4.90;99.90;;;;;;5101111;28;20051;-37
2024/01/21 12:14:14;;;;;;;5.25;4.03;;;4.90;99.90;;;;;;5101033;28;20028;-34
2024/01/21 12:16:41;;;;;;;5.57;4.63;;;4.90;99.90;;;;;;5099955;28;20028;-36
2024/01/21 12:19:08;;;;;;;5.05;4.55;;;4.90;99.90;;;;;;5100415;28;20057;-34
2024/01/21 12:21:34;;;;;;;7.07;5.25;;;4.90;99.90;;;;;;5101197;28;20494;-33
2024/01/21 12:24:02;;;;;;;6.10;4.60;;;4.90;99.90;;;;;;5100305;28;20031;-36
2024/01/21 12:26:28;;;;;;;6.35;5.28;;;5.00;99.90;;;;;;5100098;28;20015;-32
2024/01/21 12:29:03;;;;;;;9.20;5.65;;;4.90;99.90;;;;;;5100455;28;20024;-32
2024/01/21 12:31:31;;;;;;;7.40;5.50;;;4.90;99.90;;;;;;5100645;28;20436;-33
2024/01/21 12:34:01;;;;;;;7.40;5.25;;;4.90;99.90;;;;;;5096396;28;20038;-36
2024/01/21 12:36:29;;;;;;;7.05;5.18;;;4.90;99.90;;;;;;5100158;28;20060;-33
2024/01/21 12:38:55;;;;;;;6.38;5.10;;;5.00;99.90;;;;;;5101204;28;20383;-36
2024/01/21 12:41:21;;;;;;;6.90;5.65;;;5.00;99.90;;;;;;5099882;28;20063;-35
2024/01/21 12:43:49;;;;;;;8.13;5.95;;;5.00;99.90;;;;;;5099785;28;20055;-36
2024/01/21 12:46:17;;;;;;;8.88;6.30;;;5.00;99.90;;;;;;5100318;28;20036;-36
2024/01/21 12:48:43;;;;;;;7.00;5.65;;;5.10;99.90;;;;;;5100311;28;20047;-36
2024/01/21 12:51:19;;;;;;;7.63;6.15;;;5.10;99.90;;;;;;5098984;28;20110;-36